首页
METAR-TAF:

METAR-TAF

机场 :

Shaw Air Force Base

Sumter, 南卡罗来纳州, 美国

纬度: 33-58N, 经度: 080-29W, 海拔: 74米

当前天气观测

该预报发布于55分钟前的07:56 UTC
风速3节,风向南转西南
温度 13°C
湿度 88%
气压 1020 hPa
能見度: 16.1公里
天空无云

METAR: KSSC 230756Z AUTO 20003KT 10SM CLR 13/11 A3011 RMK AO2 SLP197 T01290106 $

时间: 04:51 (08:51 UTC)

预报

该预报发布于1小时和51分钟前的07:00 UTC
预报有效从23日的 07点(UTC)到 24日的 13点(UTC)
风速3节,风向多变
能见度10公里或以上
天空无云
成为
从 23日的 17点(UTC)到 23日的 18点(UTC)
风速9节,风向西南
能见度10公里或以上
天空无云
成为
从 23日的 23点(UTC)到 23日的 24点(UTC)
风速6节,风向南转西南
能见度10公里或以上
少量云层高于15000英尺

TAF: KSSC 230700Z 2307/2413 VRB03KT 9999 SKC QNH3006INS BECMG 2317/2318 22009KT 9999 SKC QNH2997INS BECMG 2323/2324 20006KT 9999 FEW150 QNH2995INS TX28/2320Z TN09/2311Z

超过4000个机场的气象观测和天气预报(METAR&TAF报告)。

可查询的气象台以黄色和红色小点在地图上表示。

将鼠标移到小点上方,可查看气象台名称。

然后点击查看天气观测和预报。

如需切换地图:点击带黑十字的绿色按钮放大地图;点击带横线的绿色按钮缩小地图;或者点击绿色箭头查看邻近地区的地图。


METAR-TAF: